Oylen, Minnesota
Current Conditions -  °F | °C
As of 7:54 AM on Saturday 20 Dec 2014 (Local Time) from KSAZ Reporting Station
Haze Haze  
Wind Chill: 20°   Ceiling: 700
Heat Index: 28°   Visibility: 5mi
Dew Point: 27°   Wind: 9mph
Humidity: 93%   Direction: 190°S
Pressure: 30.05"   Gusts: NA
Location:  46.4671°N, 94.8901°W
Report Text: KSAZ 201354Z AUTO 19008KT 5SM BR OVC007 M02/M03 A3005 RMK AO2
Loading
Personal Weather Stations






























Interactive Weather Map New forecast layout! Learn more

10-Day Weather Forecast

Advertisements
Track Severe Weather on mobile